• Join FlightAware (Why Join?)
  • Login
  • US Flag 
11:24PM EDT


 

Airport Tracker/Info


-or-


 

Live Flight TrackerFlight Track Log ✈ UAL4686 ✈ 30-Jul-2013 ✈ KMHT - KCLE

Flight Track Log - Related Links

Times and Time Zones

All times are in EDT time to prevent confusion due to time zone crossing. See the UAL4686 flight status page for this flight to view local times or setup timezone preferences in your user account.

Time Position Orientation Groundspeed Altitude Reporting Facility
EDT Latitude Longitude Course Direction KTS MPH feet Rate Location/Type
06:22AM 42.9500 -71.4167 270° West 171 197 1,100  Level KA90
06:23AM 43.0000 -71.3833 26° Northeast 207 238 3,300 1,980 Climbing KA90
06:25AM 42.9500 -71.9410 270° West  Level FlightAware Approximate
06:25AM 43.0739 -71.5078 309° West 256 295 7,200  Level Boston Center
06:26AM 42.9501 -72.0693 270° West  Level FlightAware Approximate
06:26AM 43.0956 -71.6097 286° West 256 295 9,700  Level Boston Center
06:27AM 42.9500 -72.1976 270° West  Level FlightAware Approximate
06:27AM 43.1044 -71.6950 278° West 249 287 11,400  Level Boston Center
06:28AM 43.1178 -71.8172 279° West 285 328 12,300 1,140 Climbing Boston Center
06:29AM 43.1244 -71.9225 275° West 314 361 13,700 1,500 Climbing Boston Center
06:30AM 43.1356 -72.0561 277° West 319 367 15,300 1,380 Climbing Boston Center
06:31AM 43.1419 -72.1642 275° West 319 367 16,500 1,200 Climbing Boston Center
06:32AM 43.1528 -72.3006 276° West 325 374 17,800 960 Climbing Boston Center
06:33AM 43.1589 -72.4003 275° West 330 380 18,500 900 Climbing Boston Center
06:34AM 43.1694 -72.5539 275° West 335 386 19,700 1,080 Climbing Boston Center
06:35AM 43.1817 -72.6850 277° West 340 391 20,700 1,020 Climbing Boston Center
06:36AM 43.1897 -72.8161 275° West 346 398 21,800 1,080 Climbing Boston Center
06:37AM 43.1975 -72.9500 275° West 351 404 22,900 1,020 Climbing Boston Center
06:38AM 43.2094 -73.0811 277° West 351 404 24,100 1,260 Climbing Boston Center
06:39AM 43.2167 -73.2350 274° West 351 404 25,700 1,440 Climbing Boston Center
06:40AM 43.2178 -73.3631 271° West 351 404 27,000 1,140 Climbing Boston Center
06:41AM 43.2147 -73.4800 268° West 345 397 28,100 1,020 Climbing Boston Center
06:42AM 43.2136 -73.6025 269° West 345 397 29,100 960 Climbing Boston Center
06:43AM 43.2078 -73.7389 267° West 340 391 30,100 960 Climbing Boston Center
06:44AM 43.2083 -73.8672 270° West 340 391 31,100 1,020 Climbing Boston Center
06:45AM 43.2131 -73.9928 273° West 340 391 32,200 1,140 Climbing Boston Center
06:46AM 43.2197 -74.1183 274° West 340 391 33,400 1,140 Climbing Boston Center
06:47AM 43.2239 -74.2436 273° West 334 384 34,600 1,140 Climbing Boston Center
06:48AM 43.2283 -74.3664 273° West 329 379 35,800 660 Climbing Boston Center
06:49AM 43.2156 -74.4886 262° West 329 379 36,000 60 Climbing Boston Center
06:50AM 43.2008 -74.6192 261° West 334 384 36,000  Level Boston Center
06:51AM 43.1836 -74.7522 260° West 352 405 36,000  Level Boston Center
06:52AM 43.1681 -74.8969 262° West 370 426 36,000  Level Boston Center
06:54AM 43.1350 -75.1603 260° West 388 447 36,000  Level Boston Center
06:55AM 43.1142 -75.3214 260° West 393 452 36,000  Level Boston Center
06:56AM 43.0981 -75.4658 261° West 393 452 36,000 -60 Level Boston Center
06:57AM 43.0794 -75.6156 260° West 393 452 35,900  Descending Boston Center
06:59AM 43.0431 -75.9067 260° West 392 451 36,000  Climbing Cleveland Center
07:00AM 43.0239 -76.0531 260° West 392 451 36,000  Level Cleveland Center
07:01AM 43.0044 -76.1992 260° West 392 451 36,000  Level Cleveland Center
07:02AM 42.9869 -76.3453 261° West 392 451 36,000  Level Cleveland Center
07:03AM 42.9672 -76.4942 260° West 392 451 36,000  Level Cleveland Center
07:04AM 42.9456 -76.6461 259° West 392 451 36,000  Level Cleveland Center
07:05AM 42.9253 -76.7919 259° West 392 451 36,000  Level Cleveland Center
07:06AM 42.9069 -76.9350 260° West 392 451 36,000  Level Cleveland Center
07:07AM 42.8822 -77.0725 256° West 387 445 36,000  Level Cleveland Center
07:08AM 42.8275 -77.2000 240° Southwest 392 451 36,000  Level Cleveland Center
07:09AM 42.7689 -77.3333 239° Southwest 406 467 36,000  Level Cleveland Center
07:10AM 42.7142 -77.4633 240° Southwest 406 467 36,000 -180 Level Cleveland Center
07:11AM 42.6689 -77.5731 241° Southwest 405 466 35,700 -780 Descending Cleveland Center
07:12AM 42.6022 -77.7286 240° Southwest 410 472 34,500 -900 Descending Cleveland Center
07:13AM 42.5428 -77.8608 239° Southwest 410 472 34,000 -300 Descending Cleveland Center
07:14AM 42.4872 -77.9900 240° Southwest 410 472 34,000  Level Cleveland Center
07:15AM 42.4278 -78.1244 239° Southwest 410 472 34,000  Level Cleveland Center
07:16AM 42.3781 -78.2417 240° Southwest 410 472 34,000  Level Cleveland Center
07:17AM 42.3183 -78.3761 239° Southwest 415 478 34,000  Level Cleveland Center
07:18AM 42.2603 -78.5069 239° Southwest 415 478 34,000  Level Cleveland Center
07:19AM 42.2019 -78.6408 240° Southwest 410 472 34,000  Level Cleveland Center
07:20AM 42.1436 -78.7686 238° Southwest 410 472 34,000  Level Cleveland Center
07:21AM 42.1042 -78.9067 249° West 405 466 34,000  Level Cleveland Center
07:22AM 42.0706 -79.0475 252° West 400 460 34,000  Level Cleveland Center
07:23AM 42.0350 -79.1853 251° West 395 455 34,000 -300 Level Cleveland Center
07:24AM 41.9989 -79.3258 251° West 395 455 33,500 -780 Descending Cleveland Center
07:25AM 41.9650 -79.4661 252° West 395 455 32,500 -1,020 Descending Cleveland Center
07:26AM 41.9286 -79.6064 251° West 395 455 31,500 -1,140 Descending Cleveland Center
07:27AM 41.8883 -79.7631 251° West 400 460 30,300 -1,500 Descending Cleveland Center
07:28AM 41.8497 -79.9086 250° West 413 475 28,500 -2,040 Descending Cleveland Center
07:29AM 41.8108 -80.0539 250° West 413 475 26,300 -2,100 Descending Cleveland Center
07:30AM 41.7781 -80.1850 252° West 413 475 24,400 -2,100 Descending Cleveland Center
07:31AM 41.7408 -80.3272 251° West 413 475 22,200 -2,100 Descending Cleveland Center
07:32AM 41.7056 -80.4608 251° West 401 461 20,200 -2,040 Descending Cleveland Center
07:33AM 41.6681 -80.5969 250° West 395 455 18,200 -1,860 Descending Cleveland Center
07:34AM 41.6325 -80.7331 251° West 388 447 16,500 -1,920 Descending Cleveland Center
07:35AM 41.5969 -80.8664 250° West 388 447 14,400 -2,220 Descending Cleveland Center
07:36AM 41.5717 -80.9633 251° West 364 419 12,900 -2,100 Descending Cleveland Center
07:37AM 41.5314 -81.0992 248° West 349 402 10,700 -1,500 Descending Cleveland Center
07:38AM 41.5122 -81.1986 256° West 343 395 10,000 -720 Descending Cleveland Center
07:39AM 41.5053 -81.3039 265° West 261 300 9,400 -1,020 Descending Cleveland Center
07:40AM 41.5006 -81.4011 266° West 255 293 8,000 -1,560 Descending Cleveland Center
07:41AM 41.4978 -81.4925 268° West 254 292 6,300 -1,680 Descending Cleveland Center
07:42AM 41.4928 -81.5894 266° West 249 287 4,600 -1,020 Descending Cleveland Center
07:43AM 41.4897 -81.6919 268° West 204 235 4,000 -960 Descending Cleveland Center
07:44AM 41.4703 -81.7636 250° West 198 228 2,500 -1,200 Descending Cleveland Center
07:45AM 41.4364 -81.8100 226° Southwest 168 193 1,600 -900 Descending Cleveland Center